East Elmhurst, New York
Current Conditions -  °F | °C
As of 5:51 PM on Tuesday 21 Oct 2014 (Local Time) from KLGA Reporting Station
Broken Clouds Broken Clouds  
Wind Chill: 63°   Ceiling: 11000
Heat Index: 63°   Visibility: 10mi
Dew Point: 54°   Wind: 9mph
Humidity: 72%   Direction: 80°E
Pressure: 29.83"   Gusts: NA
Location:  40.76°N, 73.87°W
Report Text: KLGA 212151Z 08008KT 10SM FEW025 BKN110 BKN250 17/12 A2983 RMK AO2 SLP102 T01720122
Loading
Personal Weather Stations






























Interactive Weather Map
Tropical Storm Tracking
New forecast layout! Learn more

10-Day Weather Forecast

Advertisements
Track Severe Weather on mobile